sensor_id;sensor_type;location;lat;lon;timestamp;P1;durP1;ratioP1;P2;durP2;ratioP2
36355;SDS011;22384;54.302;18.596;2023-03-23T00:00:08;57.45;;;26.65;;
36355;SDS011;22384;54.302;18.596;2023-03-23T00:02:35;36.25;;;18.75;;
36355;SDS011;22384;54.302;18.596;2023-03-23T00:05:03;27.58;;;16.50;;
36355;SDS011;22384;54.302;18.596;2023-03-23T00:07:31;22.20;;;13.77;;
36355;SDS011;22384;54.302;18.596;2023-03-23T00:09:58;25.50;;;15.00;;
36355;SDS011;22384;54.302;18.596;2023-03-23T00:12:27;25.58;;;15.52;;
36355;SDS011;22384;54.302;18.596;2023-03-23T00:14:59;32.38;;;16.83;;
36355;SDS011;22384;54.302;18.596;2023-03-23T00:17:27;38.70;;;20.27;;
36355;SDS011;22384;54.302;18.596;2023-03-23T00:19:53;29.73;;;16.45;;
36355;SDS011;22384;54.302;18.596;2023-03-23T00:22:20;30.20;;;16.50;;
36355;SDS011;22384;54.302;18.596;2023-03-23T00:24:47;23.00;;;14.05;;
36355;SDS011;22384;54.302;18.596;2023-03-23T00:27:18;29.30;;;16.30;;
36355;SDS011;22384;54.302;18.596;2023-03-23T00:29:46;28.00;;;15.82;;
36355;SDS011;22384;54.302;18.596;2023-03-23T00:32:13;45.88;;;21.88;;
36355;SDS011;22384;54.302;18.596;2023-03-23T00:34:41;101.53;;;46.17;;
36355;SDS011;22384;54.302;18.596;2023-03-23T00:37:09;47.30;;;22.92;;
36355;SDS011;22384;54.302;18.596;2023-03-23T00:39:39;41.85;;;20.33;;
36355;SDS011;22384;54.302;18.596;2023-03-23T00:42:11;33.55;;;16.67;;
36355;SDS011;22384;54.302;18.596;2023-03-23T00:44:38;34.70;;;17.60;;
36355;SDS011;22384;54.302;18.596;2023-03-23T00:47:05;34.92;;;17.27;;
36355;SDS011;22384;54.302;18.596;2023-03-23T00:49:34;29.25;;;15.40;;
36355;SDS011;22384;54.302;18.596;2023-03-23T00:52:00;27.90;;;15.25;;
36355;SDS011;22384;54.302;18.596;2023-03-23T00:54:29;22.95;;;14.50;;
36355;SDS011;22384;54.302;18.596;2023-03-23T00:56:56;35.70;;;19.45;;
36355;SDS011;22384;54.302;18.596;2023-03-23T00:59:22;37.00;;;19.92;;
36355;SDS011;22384;54.302;18.596;2023-03-23T01:01:49;27.55;;;16.15;;
36355;SDS011;22384;54.302;18.596;2023-03-23T01:04:16;30.10;;;16.00;;
36355;SDS011;22384;54.302;18.596;2023-03-23T01:06:44;32.42;;;14.82;;
36355;SDS011;22384;54.302;18.596;2023-03-23T01:09:15;25.35;;;13.38;;
36355;SDS011;22384;54.302;18.596;2023-03-23T01:11:42;22.42;;;13.70;;
36355;SDS011;22384;54.302;18.596;2023-03-23T01:14:09;27.73;;;14.00;;
36355;SDS011;22384;54.302;18.596;2023-03-23T01:16:35;36.85;;;19.60;;
36355;SDS011;22384;54.302;18.596;2023-03-23T01:19:01;29.67;;;16.35;;
36355;SDS011;22384;54.302;18.596;2023-03-23T01:21:30;37.25;;;16.55;;
36355;SDS011;22384;54.302;18.596;2023-03-23T01:23:56;29.90;;;15.07;;
36355;SDS011;22384;54.302;18.596;2023-03-23T01:26:25;30.27;;;15.38;;
36355;SDS011;22384;54.302;18.596;2023-03-23T01:28:54;28.67;;;13.85;;
36355;SDS011;22384;54.302;18.596;2023-03-23T01:31:21;18.88;;;11.93;;
36355;SDS011;22384;54.302;18.596;2023-03-23T01:33:48;17.48;;;11.73;;
36355;SDS011;22384;54.302;18.596;2023-03-23T01:36:21;19.25;;;12.30;;
36355;SDS011;22384;54.302;18.596;2023-03-23T01:38:48;17.42;;;11.95;;
36355;SDS011;22384;54.302;18.596;2023-03-23T01:41:16;17.52;;;11.35;;
36355;SDS011;22384;54.302;18.596;2023-03-23T01:46:25;16.88;;;10.88;;
36355;SDS011;22384;54.302;18.596;2023-03-23T01:48:52;23.08;;;11.43;;
36355;SDS011;22384;54.302;18.596;2023-03-23T01:51:24;23.00;;;12.52;;
36355;SDS011;22384;54.302;18.596;2023-03-23T01:53:56;28.00;;;15.00;;
36355;SDS011;22384;54.302;18.596;2023-03-23T01:56:24;16.83;;;12.00;;
36355;SDS011;22384;54.302;18.596;2023-03-23T01:58:51;19.60;;;11.95;;
36355;SDS011;22384;54.302;18.596;2023-03-23T02:01:18;18.80;;;11.55;;
36355;SDS011;22384;54.302;18.596;2023-03-23T02:03:46;15.95;;;11.07;;
36355;SDS011;22384;54.302;18.596;2023-03-23T02:06:14;17.38;;;11.15;;
36355;SDS011;22384;54.302;18.596;2023-03-23T02:08:40;16.17;;;11.15;;
36355;SDS011;22384;54.302;18.596;2023-03-23T02:11:11;19.38;;;11.00;;
36355;SDS011;22384;54.302;18.596;2023-03-23T02:13:38;17.70;;;11.53;;
36355;SDS011;22384;54.302;18.596;2023-03-23T02:16:09;18.70;;;10.93;;
36355;SDS011;22384;54.302;18.596;2023-03-23T02:18:40;17.40;;;11.02;;
36355;SDS011;22384;54.302;18.596;2023-03-23T02:21:16;16.20;;;10.80;;
36355;SDS011;22384;54.302;18.596;2023-03-23T02:26:29;27.83;;;11.77;;
36355;SDS011;22384;54.302;18.596;2023-03-23T02:34:44;21.77;;;10.85;;
36355;SDS011;22384;54.302;18.596;2023-03-23T02:37:19;17.23;;;10.05;;
36355;SDS011;22384;54.302;18.596;2023-03-23T02:39:55;23.15;;;11.15;;
36355;SDS011;22384;54.302;18.596;2023-03-23T02:42:26;17.45;;;11.10;;
36355;SDS011;22384;54.302;18.596;2023-03-23T02:44:53;25.52;;;10.98;;
36355;SDS011;22384;54.302;18.596;2023-03-23T02:47:21;35.15;;;19.00;;
36355;SDS011;22384;54.302;18.596;2023-03-23T02:49:54;47.03;;;22.80;;
36355;SDS011;22384;54.302;18.596;2023-03-23T02:52:23;23.13;;;12.60;;
36355;SDS011;22384;54.302;18.596;2023-03-23T02:54:50;17.25;;;10.75;;
36355;SDS011;22384;54.302;18.596;2023-03-23T02:57:19;20.38;;;11.38;;
36355;SDS011;22384;54.302;18.596;2023-03-23T02:59:46;17.27;;;10.82;;
36355;SDS011;22384;54.302;18.596;2023-03-23T03:02:12;15.95;;;9.95;;
36355;SDS011;22384;54.302;18.596;2023-03-23T03:04:40;22.80;;;10.75;;
36355;SDS011;22384;54.302;18.596;2023-03-23T03:09:40;15.60;;;9.40;;
36355;SDS011;22384;54.302;18.596;2023-03-23T03:12:11;16.80;;;9.80;;
36355;SDS011;22384;54.302;18.596;2023-03-23T03:14:41;15.57;;;9.52;;
36355;SDS011;22384;54.302;18.596;2023-03-23T03:17:21;16.77;;;8.73;;
36355;SDS011;22384;54.302;18.596;2023-03-23T03:19:55;17.17;;;9.23;;
36355;SDS011;22384;54.302;18.596;2023-03-23T03:22:22;15.90;;;9.57;;
36355;SDS011;22384;54.302;18.596;2023-03-23T03:24:55;18.35;;;9.98;;
36355;SDS011;22384;54.302;18.596;2023-03-23T03:27:21;18.38;;;9.63;;
36355;SDS011;22384;54.302;18.596;2023-03-23T03:29:55;13.75;;;9.88;;
36355;SDS011;22384;54.302;18.596;2023-03-23T03:32:28;13.95;;;8.75;;
36355;SDS011;22384;54.302;18.596;2023-03-23T03:35:00;14.32;;;9.05;;
36355;SDS011;22384;54.302;18.596;2023-03-23T03:37:33;13.52;;;8.52;;
36355;SDS011;22384;54.302;18.596;2023-03-23T03:39:59;13.90;;;9.55;;
36355;SDS011;22384;54.302;18.596;2023-03-23T03:42:25;13.57;;;8.50;;
36355;SDS011;22384;54.302;18.596;2023-03-23T03:44:52;16.13;;;8.65;;
36355;SDS011;22384;54.302;18.596;2023-03-23T03:47:20;16.25;;;8.85;;
36355;SDS011;22384;54.302;18.596;2023-03-23T03:49:48;15.30;;;8.63;;
36355;SDS011;22384;54.302;18.596;2023-03-23T03:52:17;16.00;;;9.18;;
36355;SDS011;22384;54.302;18.596;2023-03-23T03:54:43;20.58;;;8.27;;
36355;SDS011;22384;54.302;18.596;2023-03-23T03:57:10;14.63;;;8.23;;
36355;SDS011;22384;54.302;18.596;2023-03-23T03:59:36;13.25;;;8.13;;
36355;SDS011;22384;54.302;18.596;2023-03-23T04:02:03;10.23;;;7.55;;
36355;SDS011;22384;54.302;18.596;2023-03-23T04:04:32;17.88;;;10.93;;
36355;SDS011;22384;54.302;18.596;2023-03-23T04:06:58;16.20;;;9.95;;
36355;SDS011;22384;54.302;18.596;2023-03-23T04:09:24;18.98;;;9.43;;
36355;SDS011;22384;54.302;18.596;2023-03-23T04:11:54;15.77;;;8.70;;
36355;SDS011;22384;54.302;18.596;2023-03-23T04:14:21;12.85;;;8.15;;
36355;SDS011;22384;54.302;18.596;2023-03-23T04:16:47;18.65;;;9.48;;
36355;SDS011;22384;54.302;18.596;2023-03-23T04:19:17;16.27;;;9.75;;
36355;SDS011;22384;54.302;18.596;2023-03-23T04:21:43;17.90;;;9.23;;
36355;SDS011;22384;54.302;18.596;2023-03-23T04:24:15;14.93;;;9.27;;
36355;SDS011;22384;54.302;18.596;2023-03-23T04:26:42;19.20;;;8.82;;
36355;SDS011;22384;54.302;18.596;2023-03-23T04:29:09;15.70;;;8.82;;
36355;SDS011;22384;54.302;18.596;2023-03-23T04:31:38;12.30;;;8.43;;
36355;SDS011;22384;54.302;18.596;2023-03-23T04:34:05;16.67;;;9.02;;
36355;SDS011;22384;54.302;18.596;2023-03-23T04:36:32;12.68;;;8.27;;
36355;SDS011;22384;54.302;18.596;2023-03-23T04:39:01;12.55;;;8.15;;
36355;SDS011;22384;54.302;18.596;2023-03-23T04:41:32;12.50;;;8.68;;
36355;SDS011;22384;54.302;18.596;2023-03-23T04:43:58;14.68;;;8.98;;
36355;SDS011;22384;54.302;18.596;2023-03-23T04:46:28;13.23;;;8.30;;
36355;SDS011;22384;54.302;18.596;2023-03-23T04:48:55;14.90;;;8.00;;
36355;SDS011;22384;54.302;18.596;2023-03-23T04:51:24;14.40;;;8.15;;
36355;SDS011;22384;54.302;18.596;2023-03-23T04:53:51;15.27;;;8.02;;
36355;SDS011;22384;54.302;18.596;2023-03-23T04:56:18;16.73;;;8.65;;
36355;SDS011;22384;54.302;18.596;2023-03-23T04:58:45;15.68;;;7.80;;
36355;SDS011;22384;54.302;18.596;2023-03-23T05:01:11;14.05;;;8.48;;
36355;SDS011;22384;54.302;18.596;2023-03-23T05:03:44;12.68;;;7.40;;
36355;SDS011;22384;54.302;18.596;2023-03-23T05:06:11;14.55;;;7.97;;
36355;SDS011;22384;54.302;18.596;2023-03-23T05:08:37;14.20;;;8.30;;
36355;SDS011;22384;54.302;18.596;2023-03-23T05:11:04;16.05;;;8.15;;
36355;SDS011;22384;54.302;18.596;2023-03-23T05:13:34;16.48;;;8.27;;
36355;SDS011;22384;54.302;18.596;2023-03-23T05:16:03;14.98;;;7.85;;
36355;SDS011;22384;54.302;18.596;2023-03-23T05:18:31;13.60;;;7.72;;
36355;SDS011;22384;54.302;18.596;2023-03-23T05:21:02;13.93;;;8.55;;
36355;SDS011;22384;54.302;18.596;2023-03-23T05:23:28;16.58;;;8.55;;
36355;SDS011;22384;54.302;18.596;2023-03-23T05:25:56;11.85;;;7.82;;
36355;SDS011;22384;54.302;18.596;2023-03-23T05:28:26;12.98;;;7.97;;
36355;SDS011;22384;54.302;18.596;2023-03-23T05:30:54;12.02;;;7.72;;
36355;SDS011;22384;54.302;18.596;2023-03-23T05:33:21;15.60;;;8.07;;
36355;SDS011;22384;54.302;18.596;2023-03-23T05:35:48;14.10;;;7.40;;
36355;SDS011;22384;54.302;18.596;2023-03-23T05:38:14;15.98;;;7.88;;
36355;SDS011;22384;54.302;18.596;2023-03-23T05:40:42;13.05;;;7.75;;
36355;SDS011;22384;54.302;18.596;2023-03-23T05:43:08;15.60;;;7.53;;
36355;SDS011;22384;54.302;18.596;2023-03-23T05:45:35;10.40;;;7.50;;
36355;SDS011;22384;54.302;18.596;2023-03-23T05:48:02;15.13;;;6.97;;
36355;SDS011;22384;54.302;18.596;2023-03-23T05:50:29;13.43;;;7.35;;
36355;SDS011;22384;54.302;18.596;2023-03-23T05:52:56;14.85;;;7.80;;
36355;SDS011;22384;54.302;18.596;2023-03-23T05:55:23;15.95;;;7.43;;
36355;SDS011;22384;54.302;18.596;2023-03-23T05:57:52;19.75;;;7.10;;
36355;SDS011;22384;54.302;18.596;2023-03-23T06:00:19;13.45;;;6.50;;
36355;SDS011;22384;54.302;18.596;2023-03-23T06:02:53;17.23;;;6.88;;
36355;SDS011;22384;54.302;18.596;2023-03-23T06:05:20;14.45;;;6.95;;
36355;SDS011;22384;54.302;18.596;2023-03-23T06:07:48;13.07;;;6.35;;
36355;SDS011;22384;54.302;18.596;2023-03-23T06:10:14;19.48;;;7.03;;
36355;SDS011;22384;54.302;18.596;2023-03-23T06:12:42;14.85;;;7.85;;
36355;SDS011;22384;54.302;18.596;2023-03-23T06:15:12;12.43;;;7.25;;
36355;SDS011;22384;54.302;18.596;2023-03-23T06:17:42;13.60;;;6.90;;
36355;SDS011;22384;54.302;18.596;2023-03-23T06:20:09;14.48;;;7.00;;
36355;SDS011;22384;54.302;18.596;2023-03-23T06:22:47;13.82;;;6.32;;
36355;SDS011;22384;54.302;18.596;2023-03-23T06:25:18;15.00;;;6.82;;
36355;SDS011;22384;54.302;18.596;2023-03-23T06:27:47;14.50;;;6.35;;
36355;SDS011;22384;54.302;18.596;2023-03-23T06:30:14;9.02;;;5.57;;
36355;SDS011;22384;54.302;18.596;2023-03-23T06:32:41;11.95;;;5.57;;
36355;SDS011;22384;54.302;18.596;2023-03-23T06:37:43;7.15;;;4.80;;
36355;SDS011;22384;54.302;18.596;2023-03-23T06:40:16;11.40;;;5.00;;
36355;SDS011;22384;54.302;18.596;2023-03-23T06:42:57;25.27;;;7.47;;
36355;SDS011;22384;54.302;18.596;2023-03-23T06:45:26;14.05;;;7.18;;
36355;SDS011;22384;54.302;18.596;2023-03-23T06:47:53;13.40;;;5.60;;
36355;SDS011;22384;54.302;18.596;2023-03-23T06:50:22;11.38;;;6.25;;
36355;SDS011;22384;54.302;18.596;2023-03-23T06:52:51;9.57;;;5.60;;
36355;SDS011;22384;54.302;18.596;2023-03-23T06:55:22;9.50;;;5.47;;
36355;SDS011;22384;54.302;18.596;2023-03-23T06:57:53;12.23;;;6.00;;
36355;SDS011;22384;54.302;18.596;2023-03-23T07:00:22;13.00;;;6.72;;
36355;SDS011;22384;54.302;18.596;2023-03-23T07:02:48;13.27;;;7.00;;
36355;SDS011;22384;54.302;18.596;2023-03-23T07:05:17;13.82;;;6.22;;
36355;SDS011;22384;54.302;18.596;2023-03-23T07:08:09;15.90;;;6.03;;
36355;SDS011;22384;54.302;18.596;2023-03-23T07:10:55;11.57;;;5.70;;
36355;SDS011;22384;54.302;18.596;2023-03-23T07:13:32;11.65;;;6.10;;
36355;SDS011;22384;54.302;18.596;2023-03-23T07:16:19;14.63;;;5.30;;
36355;SDS011;22384;54.302;18.596;2023-03-23T07:19:05;10.55;;;5.72;;
36355;SDS011;22384;54.302;18.596;2023-03-23T07:21:32;14.55;;;6.18;;
36355;SDS011;22384;54.302;18.596;2023-03-23T07:24:19;11.07;;;4.88;;
36355;SDS011;22384;54.302;18.596;2023-03-23T07:26:50;25.80;;;8.70;;
36355;SDS011;22384;54.302;18.596;2023-03-23T07:29:36;19.88;;;5.82;;
36355;SDS011;22384;54.302;18.596;2023-03-23T07:32:05;59.85;;;14.55;;
36355;SDS011;22384;54.302;18.596;2023-03-23T07:34:52;50.63;;;15.77;;
36355;SDS011;22384;54.302;18.596;2023-03-23T07:37:38;334.08;;;84.25;;
36355;SDS011;22384;54.302;18.596;2023-03-23T07:40:07;47.72;;;23.60;;
36355;SDS011;22384;54.302;18.596;2023-03-23T07:42:42;16.15;;;7.05;;
36355;SDS011;22384;54.302;18.596;2023-03-23T07:45:12;11.32;;;6.43;;
36355;SDS011;22384;54.302;18.596;2023-03-23T07:47:39;10.43;;;5.37;;
36355;SDS011;22384;54.302;18.596;2023-03-23T07:50:11;12.70;;;5.93;;
36355;SDS011;22384;54.302;18.596;2023-03-23T07:52:50;11.82;;;5.38;;
36355;SDS011;22384;54.302;18.596;2023-03-23T07:55:25;12.43;;;5.72;;
36355;SDS011;22384;54.302;18.596;2023-03-23T07:57:54;12.13;;;6.18;;
36355;SDS011;22384;54.302;18.596;2023-03-23T08:00:24;11.10;;;5.93;;
36355;SDS011;22384;54.302;18.596;2023-03-23T08:02:55;12.32;;;5.45;;
36355;SDS011;22384;54.302;18.596;2023-03-23T08:07:55;13.80;;;5.40;;
36355;SDS011;22384;54.302;18.596;2023-03-23T08:10:22;18.15;;;6.05;;
36355;SDS011;22384;54.302;18.596;2023-03-23T08:12:53;7.68;;;5.03;;
36355;SDS011;22384;54.302;18.596;2023-03-23T08:15:26;10.43;;;4.60;;
36355;SDS011;22384;54.302;18.596;2023-03-23T08:17:53;13.35;;;5.05;;
36355;SDS011;22384;54.302;18.596;2023-03-23T08:20:20;8.70;;;5.18;;
36355;SDS011;22384;54.302;18.596;2023-03-23T08:22:53;10.48;;;4.43;;
36355;SDS011;22384;54.302;18.596;2023-03-23T08:25:20;8.25;;;5.30;;
36355;SDS011;22384;54.302;18.596;2023-03-23T08:27:58;12.35;;;5.00;;
36355;SDS011;22384;54.302;18.596;2023-03-23T08:30:28;9.10;;;4.25;;
36355;SDS011;22384;54.302;18.596;2023-03-23T08:32:57;8.25;;;4.55;;
36355;SDS011;22384;54.302;18.596;2023-03-23T08:35:43;10.32;;;4.68;;
36355;SDS011;22384;54.302;18.596;2023-03-23T08:38:13;13.52;;;4.93;;
36355;SDS011;22384;54.302;18.596;2023-03-23T08:40:40;12.55;;;4.70;;
36355;SDS011;22384;54.302;18.596;2023-03-23T08:43:08;7.63;;;4.07;;
36355;SDS011;22384;54.302;18.596;2023-03-23T08:45:36;6.82;;;4.20;;
36355;SDS011;22384;54.302;18.596;2023-03-23T08:48:08;7.53;;;4.35;;
36355;SDS011;22384;54.302;18.596;2023-03-23T08:53:26;10.13;;;3.55;;
36355;SDS011;22384;54.302;18.596;2023-03-23T08:56:19;13.75;;;6.43;;
36355;SDS011;22384;54.302;18.596;2023-03-23T08:59:06;7.32;;;4.30;;
36355;SDS011;22384;54.302;18.596;2023-03-23T09:01:55;7.38;;;3.83;;
36355;SDS011;22384;54.302;18.596;2023-03-23T09:04:46;6.20;;;4.35;;
36355;SDS011;22384;54.302;18.596;2023-03-23T09:07:34;12.80;;;3.35;;
36355;SDS011;22384;54.302;18.596;2023-03-23T09:10:06;7.93;;;4.68;;
36355;SDS011;22384;54.302;18.596;2023-03-23T09:12:33;8.07;;;3.78;;
36355;SDS011;22384;54.302;18.596;2023-03-23T09:15:03;6.60;;;3.67;;
36355;SDS011;22384;54.302;18.596;2023-03-23T09:17:30;11.65;;;6.70;;
36355;SDS011;22384;54.302;18.596;2023-03-23T09:19:59;9.32;;;4.78;;
36355;SDS011;22384;54.302;18.596;2023-03-23T09:24:54;9.25;;;4.13;;
36355;SDS011;22384;54.302;18.596;2023-03-23T09:27:20;12.10;;;4.85;;
36355;SDS011;22384;54.302;18.596;2023-03-23T09:29:46;9.48;;;4.70;;
36355;SDS011;22384;54.302;18.596;2023-03-23T09:32:14;7.97;;;4.20;;
36355;SDS011;22384;54.302;18.596;2023-03-23T09:34:50;6.50;;;3.90;;
36355;SDS011;22384;54.302;18.596;2023-03-23T09:37:20;6.47;;;4.05;;
36355;SDS011;22384;54.302;18.596;2023-03-23T09:39:47;7.05;;;4.00;;
36355;SDS011;22384;54.302;18.596;2023-03-23T09:45:28;8.73;;;4.07;;
36355;SDS011;22384;54.302;18.596;2023-03-23T09:50:29;7.45;;;3.60;;
36355;SDS011;22384;54.302;18.596;2023-03-23T09:53:08;6.50;;;3.78;;
36355;SDS011;22384;54.302;18.596;2023-03-23T09:55:36;7.60;;;4.38;;
36355;SDS011;22384;54.302;18.596;2023-03-23T10:00:46;5.90;;;3.60;;
36355;SDS011;22384;54.302;18.596;2023-03-23T10:03:14;5.53;;;3.40;;
36355;SDS011;22384;54.302;18.596;2023-03-23T10:05:47;5.28;;;3.55;;
36355;SDS011;22384;54.302;18.596;2023-03-23T10:10:56;8.60;;;3.40;;
36355;SDS011;22384;54.302;18.596;2023-03-23T10:13:34;5.07;;;3.15;;
36355;SDS011;22384;54.302;18.596;2023-03-23T10:16:03;10.00;;;3.78;;
36355;SDS011;22384;54.302;18.596;2023-03-23T10:18:43;6.25;;;3.10;;
36355;SDS011;22384;54.302;18.596;2023-03-23T10:21:15;4.07;;;2.45;;
36355;SDS011;22384;54.302;18.596;2023-03-23T10:24:04;4.07;;;2.88;;
36355;SDS011;22384;54.302;18.596;2023-03-23T10:31:35;10.40;;;2.70;;
36355;SDS011;22384;54.302;18.596;2023-03-23T10:34:04;6.28;;;2.80;;
36355;SDS011;22384;54.302;18.596;2023-03-23T10:36:35;3.47;;;2.55;;
36355;SDS011;22384;54.302;18.596;2023-03-23T10:39:15;5.03;;;2.63;;
36355;SDS011;22384;54.302;18.596;2023-03-23T10:41:46;2.75;;;1.83;;
36355;SDS011;22384;54.302;18.596;2023-03-23T10:44:22;3.47;;;2.13;;
36355;SDS011;22384;54.302;18.596;2023-03-23T10:47:04;18.35;;;5.55;;
36355;SDS011;22384;54.302;18.596;2023-03-23T10:49:42;4.60;;;2.05;;
36355;SDS011;22384;54.302;18.596;2023-03-23T10:52:24;6.68;;;2.70;;
36355;SDS011;22384;54.302;18.596;2023-03-23T10:55:01;3.97;;;2.47;;
36355;SDS011;22384;54.302;18.596;2023-03-23T10:57:30;13.25;;;3.78;;
36355;SDS011;22384;54.302;18.596;2023-03-23T11:00:05;9.57;;;3.30;;
36355;SDS011;22384;54.302;18.596;2023-03-23T11:02:38;6.03;;;2.28;;
36355;SDS011;22384;54.302;18.596;2023-03-23T11:05:13;5.05;;;2.35;;
36355;SDS011;22384;54.302;18.596;2023-03-23T11:07:40;6.18;;;3.22;;
36355;SDS011;22384;54.302;18.596;2023-03-23T11:10:21;2.22;;;1.70;;
36355;SDS011;22384;54.302;18.596;2023-03-23T11:13:01;4.13;;;2.22;;
36355;SDS011;22384;54.302;18.596;2023-03-23T11:15:35;6.30;;;1.88;;
36355;SDS011;22384;54.302;18.596;2023-03-23T11:18:13;7.03;;;3.42;;
36355;SDS011;22384;54.302;18.596;2023-03-23T11:20:44;3.08;;;1.70;;
36355;SDS011;22384;54.302;18.596;2023-03-23T11:28:45;2.22;;;1.60;;
36355;SDS011;22384;54.302;18.596;2023-03-23T11:31:42;2.33;;;1.65;;
36355;SDS011;22384;54.302;18.596;2023-03-23T11:40:14;5.03;;;2.53;;
36355;SDS011;22384;54.302;18.596;2023-03-23T11:45:36;4.25;;;2.50;;
36355;SDS011;22384;54.302;18.596;2023-03-23T11:48:18;2.90;;;1.90;;
36355;SDS011;22384;54.302;18.596;2023-03-23T11:51:03;4.63;;;3.15;;
36355;SDS011;22384;54.302;18.596;2023-03-23T11:53:35;3.90;;;2.63;;
36355;SDS011;22384;54.302;18.596;2023-03-23T11:58:31;38.90;;;9.02;;
36355;SDS011;22384;54.302;18.596;2023-03-23T12:04:13;21.27;;;5.68;;
36355;SDS011;22384;54.302;18.596;2023-03-23T12:20:39;5.15;;;2.55;;
36355;SDS011;22384;54.302;18.596;2023-03-23T12:23:24;6.40;;;2.58;;
36355;SDS011;22384;54.302;18.596;2023-03-23T12:28:52;6.60;;;2.85;;
36355;SDS011;22384;54.302;18.596;2023-03-23T12:33:59;5.63;;;2.83;;
36355;SDS011;22384;54.302;18.596;2023-03-23T12:36:36;2.75;;;2.00;;
36355;SDS011;22384;54.302;18.596;2023-03-23T12:44:35;5.57;;;2.80;;
36355;SDS011;22384;54.302;18.596;2023-03-23T12:47:17;7.22;;;2.80;;
36355;SDS011;22384;54.302;18.596;2023-03-23T12:49:54;9.07;;;3.65;;
36355;SDS011;22384;54.302;18.596;2023-03-23T12:52:23;7.60;;;2.85;;
36355;SDS011;22384;54.302;18.596;2023-03-23T13:03:09;9.60;;;4.15;;
36355;SDS011;22384;54.302;18.596;2023-03-23T13:05:52;8.90;;;3.55;;
36355;SDS011;22384;54.302;18.596;2023-03-23T13:08:33;18.80;;;5.35;;
36355;SDS011;22384;54.302;18.596;2023-03-23T13:11:03;8.20;;;3.97;;
36355;SDS011;22384;54.302;18.596;2023-03-23T13:13:49;6.20;;;2.45;;
36355;SDS011;22384;54.302;18.596;2023-03-23T13:16:36;9.63;;;3.65;;
36355;SDS011;22384;54.302;18.596;2023-03-23T13:19:14;4.40;;;2.80;;
36355;SDS011;22384;54.302;18.596;2023-03-23T13:24:18;5.72;;;3.70;;
36355;SDS011;22384;54.302;18.596;2023-03-23T13:26:52;9.23;;;3.78;;
36355;SDS011;22384;54.302;18.596;2023-03-23T13:29:23;10.75;;;3.38;;
36355;SDS011;22384;54.302;18.596;2023-03-23T13:32:03;6.50;;;4.15;;
36355;SDS011;22384;54.302;18.596;2023-03-23T13:34:41;14.20;;;8.82;;
36355;SDS011;22384;54.302;18.596;2023-03-23T13:37:19;19.77;;;10.13;;
36355;SDS011;22384;54.302;18.596;2023-03-23T13:39:51;47.95;;;11.60;;
36355;SDS011;22384;54.302;18.596;2023-03-23T13:42:24;23.92;;;7.38;;
36355;SDS011;22384;54.302;18.596;2023-03-23T13:47:35;13.90;;;3.88;;
36355;SDS011;22384;54.302;18.596;2023-03-23T13:50:08;17.23;;;5.78;;
36355;SDS011;22384;54.302;18.596;2023-03-23T13:58:09;7.15;;;3.30;;
36355;SDS011;22384;54.302;18.596;2023-03-23T14:00:43;13.73;;;5.35;;
36355;SDS011;22384;54.302;18.596;2023-03-23T14:03:23;5.78;;;3.00;;
36355;SDS011;22384;54.302;18.596;2023-03-23T14:11:12;5.13;;;2.70;;
36355;SDS011;22384;54.302;18.596;2023-03-23T14:14:02;2.35;;;1.63;;
36355;SDS011;22384;54.302;18.596;2023-03-23T14:17:05;6.15;;;2.00;;
36355;SDS011;22384;54.302;18.596;2023-03-23T14:19:55;6.82;;;3.08;;
36355;SDS011;22384;54.302;18.596;2023-03-23T14:22:34;3.72;;;2.30;;
36355;SDS011;22384;54.302;18.596;2023-03-23T14:27:39;4.25;;;2.30;;
36355;SDS011;22384;54.302;18.596;2023-03-23T14:30:36;3.88;;;2.00;;
36355;SDS011;22384;54.302;18.596;2023-03-23T14:33:03;8.52;;;2.35;;
36355;SDS011;22384;54.302;18.596;2023-03-23T14:35:42;13.55;;;2.58;;
36355;SDS011;22384;54.302;18.596;2023-03-23T14:38:22;4.72;;;2.00;;
36355;SDS011;22384;54.302;18.596;2023-03-23T14:41:01;3.70;;;2.15;;
36355;SDS011;22384;54.302;18.596;2023-03-23T14:43:28;5.78;;;2.28;;
36355;SDS011;22384;54.302;18.596;2023-03-23T14:45:58;5.40;;;3.00;;
36355;SDS011;22384;54.302;18.596;2023-03-23T14:58:26;2.95;;;1.80;;
36355;SDS011;22384;54.302;18.596;2023-03-23T15:29:45;14.55;;;7.25;;
36355;SDS011;22384;54.302;18.596;2023-03-23T15:32:53;10.52;;;5.95;;
36355;SDS011;22384;54.302;18.596;2023-03-23T15:35:22;14.52;;;8.48;;
36355;SDS011;22384;54.302;18.596;2023-03-23T15:40:18;8.30;;;3.67;;
36355;SDS011;22384;54.302;18.596;2023-03-23T15:42:45;10.32;;;5.22;;
36355;SDS011;22384;54.302;18.596;2023-03-23T15:47:43;12.93;;;6.28;;
36355;SDS011;22384;54.302;18.596;2023-03-23T15:50:18;7.07;;;4.20;;
36355;SDS011;22384;54.302;18.596;2023-03-23T15:52:46;6.75;;;2.80;;
36355;SDS011;22384;54.302;18.596;2023-03-23T15:55:20;5.05;;;2.40;;
36355;SDS011;22384;54.302;18.596;2023-03-23T15:57:47;5.72;;;2.33;;
36355;SDS011;22384;54.302;18.596;2023-03-23T16:00:15;6.85;;;2.28;;
36355;SDS011;22384;54.302;18.596;2023-03-23T16:02:42;16.20;;;8.98;;
36355;SDS011;22384;54.302;18.596;2023-03-23T16:05:11;6.10;;;2.75;;
36355;SDS011;22384;54.302;18.596;2023-03-23T16:07:37;5.28;;;2.90;;
36355;SDS011;22384;54.302;18.596;2023-03-23T16:10:04;5.72;;;3.35;;
36355;SDS011;22384;54.302;18.596;2023-03-23T16:12:31;11.48;;;5.90;;
36355;SDS011;22384;54.302;18.596;2023-03-23T16:14:58;7.97;;;4.82;;
36355;SDS011;22384;54.302;18.596;2023-03-23T16:17:24;31.67;;;9.57;;
36355;SDS011;22384;54.302;18.596;2023-03-23T16:19:51;18.50;;;7.22;;
36355;SDS011;22384;54.302;18.596;2023-03-23T16:22:17;26.35;;;9.30;;
36355;SDS011;22384;54.302;18.596;2023-03-23T16:24:43;12.48;;;4.18;;
36355;SDS011;22384;54.302;18.596;2023-03-23T16:27:10;13.80;;;4.10;;
36355;SDS011;22384;54.302;18.596;2023-03-23T16:29:37;24.70;;;6.47;;
36355;SDS011;22384;54.302;18.596;2023-03-23T16:32:03;17.55;;;6.07;;
36355;SDS011;22384;54.302;18.596;2023-03-23T16:34:30;10.63;;;3.92;;
36355;SDS011;22384;54.302;18.596;2023-03-23T16:36:59;14.57;;;5.35;;
36355;SDS011;22384;54.302;18.596;2023-03-23T16:39:25;21.48;;;10.75;;
36355;SDS011;22384;54.302;18.596;2023-03-23T16:41:52;11.13;;;3.97;;
36355;SDS011;22384;54.302;18.596;2023-03-23T16:44:18;11.07;;;4.47;;
36355;SDS011;22384;54.302;18.596;2023-03-23T16:46:44;10.07;;;4.25;;
36355;SDS011;22384;54.302;18.596;2023-03-23T16:49:10;10.52;;;4.00;;
36355;SDS011;22384;54.302;18.596;2023-03-23T16:51:38;5.80;;;3.30;;
36355;SDS011;22384;54.302;18.596;2023-03-23T16:54:04;5.90;;;2.45;;
36355;SDS011;22384;54.302;18.596;2023-03-23T16:56:31;6.30;;;2.40;;
36355;SDS011;22384;54.302;18.596;2023-03-23T16:59:00;14.85;;;1.35;;
36355;SDS011;22384;54.302;18.596;2023-03-23T17:04:30;3.10;;;1.10;;
36355;SDS011;22384;54.302;18.596;2023-03-23T17:07:09;4.22;;;1.05;;
36355;SDS011;22384;54.302;18.596;2023-03-23T17:09:55;3.50;;;1.40;;
36355;SDS011;22384;54.302;18.596;2023-03-23T17:12:25;3.35;;;1.30;;
36355;SDS011;22384;54.302;18.596;2023-03-23T17:14:51;4.07;;;1.70;;
36355;SDS011;22384;54.302;18.596;2023-03-23T17:17:27;4.43;;;1.83;;
36355;SDS011;22384;54.302;18.596;2023-03-23T17:19:56;3.63;;;1.50;;
36355;SDS011;22384;54.302;18.596;2023-03-23T17:22:37;6.70;;;2.92;;
36355;SDS011;22384;54.302;18.596;2023-03-23T17:25:03;4.07;;;2.10;;